CYQR

Regina International Airport

Regina, Saskatchewan, Canada
TAF AMD CYQR 202015Z 2020/2118 14015G25KT 2SM -SN BLSN OVC020 TEMPO 2020/2022 6SM -SN BLSN OVC025 FM202200 14015G25KT P6SM -SN OVC020 TEMPO 2022/2104 P6SM NSW BKN025 FM210400 14010KT 6SM -SN BR SCT006 OVC012 TEMPO 2104/2118 2SM -SN BR OVC006 PROB30 2106/2118 1/2SM FZFG VV002 RMK NXT FCST BY 210000Z
Issued Valid From Valid To
Jan-20 @ 20:15 UTC
(an hour ago)
Jan-20 @ 20:00 UTC
(an hour ago)
Jan-21 @ 18:00 UTC
(in 21 hours)
Jan-20 @ 20:00 to Jan-20 @ 22:00
TAF AMD CYQR 202015Z 2020/2118 14015G25KT 2SM -SN BLSN OVC020
Wind Visibility Clouds Conditions
140° at 15 knots
 Gusting to 25 knots
2 miles
  • Overcast at 2,000' AGL
  • Light Snow
  • Blowing
  • Snow
Temporary Jan-20 @ 20:00 to Jan-20 @ 22:00
TEMPO 2020/2022 6SM -SN BLSN OVC025
Visibility Clouds Conditions
6 miles
  • Overcast at 2,500' AGL
  • Light Snow
  • Blowing
  • Snow
From Jan-20 @ 22:00 to Jan-21 @ 04:00
FM202200 14015G25KT P6SM -SN OVC020
Wind Visibility Clouds Conditions
140° at 15 knots
 Gusting to 25 knots
Greater than 6 miles
  • Overcast at 2,000' AGL
  • Light Snow
Temporary Jan-20 @ 22:00 to Jan-21 @ 04:00
TEMPO 2022/2104 P6SM NSW BKN025
Visibility Clouds Conditions
Greater than 6 miles
  • Broken at 2,500' AGL
From Jan-21 @ 04:00 to Jan-21 @ 18:00
FM210400 14010KT 6SM -SN BR SCT006 OVC012
Wind Visibility Clouds Conditions
140° at 10 knots 6 miles
  • Scattered at 600' AGL
  • Overcast at 1,200' AGL
  • Light Snow
  • Mist
Temporary Jan-21 @ 04:00 to Jan-21 @ 18:00
TEMPO 2104/2118 2SM -SN BR OVC006
Visibility Clouds Conditions
2 miles
  • Overcast at 600' AGL
  • Light Snow
  • Mist
Probable  (Probability 30%) Jan-21 @ 06:00 to Jan-21 @ 18:00
PROB30 2106/2118 1/2SM FZFG VV002 RMK NXT FCST BY 210000Z
Visibility Clouds Conditions
1/2 miles
  • Vertical visibility at 200' AGL
  • Freezing
  • Fog
TAF AMD CYQR 202015Z 2020/2118 14015G25KT 2SM -SN BLSN OVC020 TEMPO 2020/2022 6SM -SN BLSN OVC025 FM202200 14015G25KT P6SM -SN OVC020 TEMPO 2022/2104 P6SM NSW BKN025 FM210400 14010KT 6SM -SN BR SCT006 OVC012 TEMPO 2104/2118 2SM -SN BR OVC006 PROB30 2106/2118 1/2SM FZFG VV002 RMK NXT FCST BY 210000Z
Issued Jan-20 @ 20:15 UTC
(an hour ago)
Valid From Jan-20 @ 20:00 UTC
(an hour ago)
Valid To Jan-21 @ 18:00 UTC
(in 21 hours)
Jan-20 @ 20:00 - Jan-20 @ 22:00
Wind Visibility
140° at 15 knots
 Gusting to 25 knots
2 miles
Clouds
  • Overcast at 2,000' AGL
Conditions
  • Light Snow
  • Blowing
  • Snow
Temporary Jan-20 @ 20:00 - Jan-20 @ 22:00
Clouds
  • Overcast at 2,500' AGL
Conditions
  • Light Snow
  • Blowing
  • Snow
From Jan-20 @ 22:00 - Jan-21 @ 04:00
Wind Visibility
140° at 15 knots
 Gusting to 25 knots
Greater than 6 miles
Clouds
  • Overcast at 2,000' AGL
Conditions
  • Light Snow
Temporary Jan-20 @ 22:00 - Jan-21 @ 04:00
Clouds
  • Broken at 2,500' AGL
Conditions
From Jan-21 @ 04:00 - Jan-21 @ 18:00
Wind Visibility
140° at 10 knots 6 miles
Clouds
  • Scattered at 600' AGL
  • Overcast at 1,200' AGL
Conditions
  • Light Snow
  • Mist
Temporary Jan-21 @ 04:00 - Jan-21 @ 18:00
Clouds
  • Overcast at 600' AGL
Conditions
  • Light Snow
  • Mist
Probability 30% Probable Jan-21 @ 06:00 - Jan-21 @ 18:00
Clouds
  • Vertical visibility at 200' AGL
Conditions
  • Freezing
  • Fog